Tropical Cyclones
[Index]
Main Index Home Page Stock Weather Photos Extreme Storms Discussion Storm News and Storm Chasing Reports Tropical Cyclones / Hurricanes / Typhoons Weather Data and Links Wild Fires / Bushfires Weather Observation Techniques Weather Picture Catalogue Tornado Pictures and Reports Stock Video Footage and DVDs for sale
Season 1995-1996 Tropical Cyclone DARYL Track Map
Season 1995-1996 Summaries: [BoM-AU] [JTWC-AU] [JTWC-SIO] [JTWC-SPAC] [JTWC-SH]
<<- Previous TC | BoM 1995-1996 Season | Next TC ->>

click for intensity scale information  Lat/long Grid: Show Hide

 Date Labels: Show Hide

Bureau of Meteorology Tropical Cyclone Data

Name: DARYL
Number: 778 / 199596_01

16 Nov 1995 01:00 UTC to 25 Nov 1995 01:00 UTC

    date/time    lat    long    hPa   cat  kts
1995-11-16 01    7.0    95.5   1004         21          
1995-11-16 07    7.5    96.5   1004         21          
1995-11-16 13    8.1    96.5   1002         23          
1995-11-16 19    8.6    96.5   1002         23          
1995-11-17 01    9.1    96.6   1002         23          
1995-11-17 07    9.6    96.6   1000         27          
1995-11-17 13   10.2    96.3   1000         27          
1995-11-17 19   10.6    95.9    998         29          
1995-11-18 01   11.0    95.4    995    1    35          
1995-11-18 04   11.1    95.0    995    1    35          
1995-11-18 07   11.2    94.7    990    1    41          
1995-11-18 10   11.3    94.3    990    1    41          
1995-11-18 13   11.4    93.9    985    2    47          
1995-11-18 16   11.4    93.4    985    2    47          
1995-11-18 19   11.4    92.9    985    2    47          
1995-11-18 22   11.4    92.3    980    2    54          
1995-11-19 01   11.4    91.8    980    2    54          
1995-11-19 04   11.4    91.2    975    2    60          
1995-11-19 07   11.4    90.6    970    3    66          
1995-11-19 10   11.4    90.0    965    3    70          
1995-11-19 13   11.4    89.4    960    3    76          
1995-11-19 16   11.4    88.9    955    4    80          
1995-11-19 19   11.4    88.4    950    4    84          
1995-11-19 22   11.4    87.9    940    4    93          
1995-11-20 01   11.4    87.4    930    4    101          
1995-11-20 04   11.4    87.0    925    5    105          
1995-11-20 07   11.6    86.7    920    5    107          
1995-11-20 10   11.7    86.4    920    5    107          
1995-11-20 13   11.8    86.1    915    5    111          
1995-11-20 16   12.0    85.8    915    5    111          
1995-11-20 19   12.1    85.5    915    5    111          
1995-11-20 22   12.3    85.3    920    5    107          
1995-11-21 01   12.6    85.0    920    5    107          
1995-11-21 04   12.7    84.7    920    5    107          
1995-11-21 07   12.9    84.6    925    5    105          
1995-11-21 10   13.2    84.5    925    5    105          
1995-11-21 13   13.3    84.2    930    4    101          
1995-11-21 16   13.5    84.0    930    4    101          
1995-11-21 19   13.6    83.8    935    4    97          
1995-11-21 22   13.8    83.7    935    4    97          
1995-11-22 01   14.1    83.6    940    4    93          
1995-11-22 04   14.4    83.5    940    4    93          
1995-11-22 07   14.7    83.3    940    4    93          
1995-11-22 10   15.0    83.1    940    4    93          
1995-11-22 13   15.3    82.9    940    4    93          
1995-11-22 16   15.5    82.8    940    4    93          
1995-11-22 19   15.8    82.8    940    4    93          
1995-11-22 22   16.0    82.8    945    4    89          
1995-11-23 01   16.2    82.8    950    4    84          
1995-11-23 04   16.4    82.7    955    4    80          
1995-11-23 07   16.7    82.6    960    3    76          
1995-11-23 10   16.9    82.7    960    3    76          
1995-11-23 13   17.0    82.8    965    3    70          
1995-11-23 16   17.0    82.3    965    3    70          
1995-11-23 19   17.0    81.9    970    3    66          
1995-11-23 22   17.0    81.5    975    2    60          
1995-11-24 01   17.0    81.0    980    2    54          
1995-11-24 07   17.0    80.0    985    2    47          
1995-11-24 13   17.0    79.2    995    1    35          
1995-11-24 19   17.0    78.3   1000         27          
1995-11-25 01   17.0    77.5   1004         21          
Winds are 10-min average.

Tropical cyclone tracks developed by Michael Bath using data from the Bureau of Meteorology and Google Maps.


[Australian Severe Weather index] [Copyright Notice] [Email Contacts] [Search This Site] [Privacy Policy]
Document: tropical_cyclone_daryl.htm Updated: 30 May 2013